Haslemere, United Kingdom

4:45 PM GMT on January 25, 2015 (GMT +0000)
Haslemere | Change Station
CLOSE
Current Station
Personal Weather Station
Location: Haslemere, SURREY
Elevation: 486 ft
Nearby Weather Stations

Elev 486 ft 51.09 °N, 0.71 °W | Updated 19 seconds ago

Mostly Cloudy
Mostly Cloudy
45.1 °F
Feels Like 42 °F
N
5.4
Wind Variable Wind from NW
Gusts 9.2 mph

Today
High -- | Low -- °F
--% Chance of Precip.
Yesterday
High -- | Low -- °F
Precip. -- in
7:50 AM 4:41 PM
Waxing Crescent, 33% visible
Pressure 30.36 in
Visibility 6.2 miles
Clouds Mostly Cloudy 2300 ft
Windchill 42 °F
Dew Point 36 °F
Humidity 71%
Rainfall 0.00 in
Snow Depth Not available.
UV 0.0 out of 12
Pollen Not available.
Air Quality Not available.
Flu Activity Not available.
METAR EGLF 251620Z 25010KT 9999 BKN023 07/03 Q1028

More Conditions Fewer Conditions

Pressure 30.36 in
Visibility 6.2 miles
Clouds Mostly Cloudy 2300 ft
Windchill 42 °F
Dew Point 36 °F
Humidity 71%
Rainfall 0.00 in
Snow Depth Not available.
UV 0.0 out of 12
Pollen Not available.
Air Quality Not available.
Flu Activity Not available.
METAR EGLF 251620Z 25010KT 9999 BKN023 07/03 Q1028

More Conditions Fewer Conditions

10-Day Weather Forecast

Almanac

Astronomy

Jan. 25, 2015 Rise Set
Actual Time
Civil Twilight
Nautical Twilight
Astronomical Twilight
Moon
Length of Visible Light
Length of Day
Tomorrow will be .
, % of the Moon is Illuminated

Today's Extremes

Country Highs Country Lows

Community

WunderPhotos

Upload Photos

1,789,963 photos uploaded!

WunderBlogs® & News

Nearby

Air Quality

  Air Quality AQ Index Pollutant
Not available.

Snow Depth

Station Depth Elevation

Earthquake Activity

City Distance Mag. Time & Date
Minimum magnitude displayed is 2.5.

Coastal Water Temperatures

Place Temperature

Nearby Weather Stations